ENKB

Kristiansund , Kvernberget Airport

Kvernberget, Norway
METAR ENKB 161620Z 25016KT 8000 FEW006 BKN020 09/08 Q1029 RMK WIND 745FT 26023KT
Observed Flight Rules
Nov-16 @ 16:20 UTC (21 minutes ago) Marginal Visual Flight Rules
Wind Visibility Clouds
250° at 16 knots 7,998 meters
  • Few at 600' AGL
  • Broken at 2,000' AGL
Temperatures Readings
Current 9°C / 48°F
Dewpoint 8°C / 46°F
Humidity 94%
Altimeter 30.38" Hg
Pressure 1029 hPa
Elevation 62
METAR ENKB 161620Z 25016KT 8000 FEW006 BKN020 09/08 Q1029 RMK WIND 745FT 26023KT
Observed Flight Rules
Nov-16 @ 16:20 UTC
(21 minutes ago)
MVFR
Wind Visibility
250° at 16 knots 7,998 meters
Clouds
  • Few at 600' AGL
  • Broken at 2,000' AGL
Temperature Dewpoint
9°C / 48°F 8°C / 46°F
Humidity Altimeter Pressure
94% 30.38" Hg 1029 hPa